sensor_id;sensor_type;location;lat;lon;timestamp;P1;durP1;ratioP1;P2;durP2;ratioP2
49392;SDS011;35268;42.642;23.308;2022-11-03T00:00:28;12.52;;;2.80;;
49392;SDS011;35268;42.642;23.308;2022-11-03T00:02:53;7.10;;;2.97;;
49392;SDS011;35268;42.642;23.308;2022-11-03T00:05:19;11.68;;;3.00;;
49392;SDS011;35268;42.642;23.308;2022-11-03T00:08:03;9.98;;;2.78;;
49392;SDS011;35268;42.642;23.308;2022-11-03T00:10:29;10.98;;;2.95;;
49392;SDS011;35268;42.642;23.308;2022-11-03T00:12:54;19.52;;;3.63;;
49392;SDS011;35268;42.642;23.308;2022-11-03T00:15:20;16.08;;;3.08;;
49392;SDS011;35268;42.642;23.308;2022-11-03T00:17:45;8.02;;;2.88;;
49392;SDS011;35268;42.642;23.308;2022-11-03T00:20:11;13.45;;;4.40;;
49392;SDS011;35268;42.642;23.308;2022-11-03T00:22:36;10.50;;;3.58;;
49392;SDS011;35268;42.642;23.308;2022-11-03T00:25:02;9.32;;;3.35;;
49392;SDS011;35268;42.642;23.308;2022-11-03T00:27:28;7.97;;;2.88;;
49392;SDS011;35268;42.642;23.308;2022-11-03T00:29:53;9.32;;;3.13;;
49392;SDS011;35268;42.642;23.308;2022-11-03T00:32:19;11.48;;;3.55;;
49392;SDS011;35268;42.642;23.308;2022-11-03T00:34:44;8.13;;;2.67;;
49392;SDS011;35268;42.642;23.308;2022-11-03T00:37:10;10.77;;;2.92;;
49392;SDS011;35268;42.642;23.308;2022-11-03T00:39:35;11.73;;;3.05;;
49392;SDS011;35268;42.642;23.308;2022-11-03T00:42:01;13.57;;;2.80;;
49392;SDS011;35268;42.642;23.308;2022-11-03T00:44:26;8.40;;;2.75;;
49392;SDS011;35268;42.642;23.308;2022-11-03T00:46:51;13.88;;;3.28;;
49392;SDS011;35268;42.642;23.308;2022-11-03T00:49:17;9.88;;;2.53;;
49392;SDS011;35268;42.642;23.308;2022-11-03T00:51:42;11.90;;;3.38;;
49392;SDS011;35268;42.642;23.308;2022-11-03T00:54:08;6.90;;;2.47;;
49392;SDS011;35268;42.642;23.308;2022-11-03T00:56:34;7.22;;;2.78;;
49392;SDS011;35268;42.642;23.308;2022-11-03T00:59:01;7.75;;;2.85;;
49392;SDS011;35268;42.642;23.308;2022-11-03T01:01:29;8.13;;;2.80;;
49392;SDS011;35268;42.642;23.308;2022-11-03T01:03:56;10.02;;;3.25;;
49392;SDS011;35268;42.642;23.308;2022-11-03T01:06:46;8.55;;;2.97;;
49392;SDS011;35268;42.642;23.308;2022-11-03T01:09:29;11.15;;;3.28;;
49392;SDS011;35268;42.642;23.308;2022-11-03T01:12:10;10.05;;;4.05;;
49392;SDS011;35268;42.642;23.308;2022-11-03T01:14:44;8.45;;;3.45;;
49392;SDS011;35268;42.642;23.308;2022-11-03T01:17:11;9.18;;;3.10;;
49392;SDS011;35268;42.642;23.308;2022-11-03T01:19:47;9.30;;;3.38;;
49392;SDS011;35268;42.642;23.308;2022-11-03T01:22:13;9.98;;;3.70;;
49392;SDS011;35268;42.642;23.308;2022-11-03T01:24:40;8.43;;;3.08;;
49392;SDS011;35268;42.642;23.308;2022-11-03T01:27:10;11.65;;;3.22;;
49392;SDS011;35268;42.642;23.308;2022-11-03T01:29:37;9.43;;;3.47;;
49392;SDS011;35268;42.642;23.308;2022-11-03T01:32:03;9.68;;;3.35;;
49392;SDS011;35268;42.642;23.308;2022-11-03T01:34:29;12.45;;;3.08;;
49392;SDS011;35268;42.642;23.308;2022-11-03T01:36:54;10.68;;;3.45;;
49392;SDS011;35268;42.642;23.308;2022-11-03T01:39:20;13.10;;;3.50;;
49392;SDS011;35268;42.642;23.308;2022-11-03T01:41:46;16.13;;;3.22;;
49392;SDS011;35268;42.642;23.308;2022-11-03T01:46:52;11.88;;;3.17;;
49392;SDS011;35268;42.642;23.308;2022-11-03T01:49:22;12.77;;;4.00;;
49392;SDS011;35268;42.642;23.308;2022-11-03T01:54:36;13.23;;;3.28;;
49392;SDS011;35268;42.642;23.308;2022-11-03T01:57:04;10.18;;;3.97;;
49392;SDS011;35268;42.642;23.308;2022-11-03T01:59:34;15.80;;;3.53;;
49392;SDS011;35268;42.642;23.308;2022-11-03T02:02:00;12.77;;;4.35;;
49392;SDS011;35268;42.642;23.308;2022-11-03T02:04:28;11.45;;;3.25;;
49392;SDS011;35268;42.642;23.308;2022-11-03T02:07:01;13.43;;;5.43;;
49392;SDS011;35268;42.642;23.308;2022-11-03T02:09:35;12.10;;;4.03;;
49392;SDS011;35268;42.642;23.308;2022-11-03T02:12:00;13.52;;;3.72;;
49392;SDS011;35268;42.642;23.308;2022-11-03T02:14:37;10.05;;;4.70;;
49392;SDS011;35268;42.642;23.308;2022-11-03T02:17:08;8.52;;;3.28;;
49392;SDS011;35268;42.642;23.308;2022-11-03T02:22:14;10.45;;;3.42;;
49392;SDS011;35268;42.642;23.308;2022-11-03T02:27:23;10.10;;;4.15;;
49392;SDS011;35268;42.642;23.308;2022-11-03T02:29:49;15.77;;;4.72;;
49392;SDS011;35268;42.642;23.308;2022-11-03T02:32:19;13.68;;;5.07;;
49392;SDS011;35268;42.642;23.308;2022-11-03T02:34:48;17.65;;;4.22;;
49392;SDS011;35268;42.642;23.308;2022-11-03T02:37:27;11.75;;;4.82;;
49392;SDS011;35268;42.642;23.308;2022-11-03T02:39:56;13.90;;;4.25;;
49392;SDS011;35268;42.642;23.308;2022-11-03T02:42:37;14.93;;;4.05;;
49392;SDS011;35268;42.642;23.308;2022-11-03T02:45:07;11.43;;;5.32;;
49392;SDS011;35268;42.642;23.308;2022-11-03T02:47:35;13.25;;;3.90;;
49392;SDS011;35268;42.642;23.308;2022-11-03T02:50:04;8.18;;;3.70;;
49392;SDS011;35268;42.642;23.308;2022-11-03T02:52:36;12.55;;;3.97;;
49392;SDS011;35268;42.642;23.308;2022-11-03T02:55:15;12.03;;;4.47;;
49392;SDS011;35268;42.642;23.308;2022-11-03T02:57:44;14.20;;;4.75;;
49392;SDS011;35268;42.642;23.308;2022-11-03T03:00:19;16.65;;;4.68;;
49392;SDS011;35268;42.642;23.308;2022-11-03T03:02:52;9.70;;;3.92;;
49392;SDS011;35268;42.642;23.308;2022-11-03T03:05:25;15.40;;;4.03;;
49392;SDS011;35268;42.642;23.308;2022-11-03T03:07:56;10.65;;;3.85;;
49392;SDS011;35268;42.642;23.308;2022-11-03T03:10:28;10.20;;;3.63;;
49392;SDS011;35268;42.642;23.308;2022-11-03T03:13:01;14.32;;;4.25;;
49392;SDS011;35268;42.642;23.308;2022-11-03T03:15:44;12.32;;;4.57;;
49392;SDS011;35268;42.642;23.308;2022-11-03T03:21:17;13.73;;;4.85;;
49392;SDS011;35268;42.642;23.308;2022-11-03T03:23:50;12.18;;;5.13;;
49392;SDS011;35268;42.642;23.308;2022-11-03T03:26:23;11.13;;;4.50;;
49392;SDS011;35268;42.642;23.308;2022-11-03T03:29:05;12.23;;;5.25;;
49392;SDS011;35268;42.642;23.308;2022-11-03T03:31:35;14.23;;;5.23;;
49392;SDS011;35268;42.642;23.308;2022-11-03T03:34:04;12.27;;;4.93;;
49392;SDS011;35268;42.642;23.308;2022-11-03T03:36:31;10.93;;;4.28;;
49392;SDS011;35268;42.642;23.308;2022-11-03T03:38:59;15.05;;;4.35;;
49392;SDS011;35268;42.642;23.308;2022-11-03T03:41:28;14.48;;;4.90;;
49392;SDS011;35268;42.642;23.308;2022-11-03T03:43:58;12.85;;;5.25;;
49392;SDS011;35268;42.642;23.308;2022-11-03T03:46:27;11.75;;;4.75;;
49392;SDS011;35268;42.642;23.308;2022-11-03T03:48:56;14.73;;;4.40;;
49392;SDS011;35268;42.642;23.308;2022-11-03T03:51:22;18.60;;;5.70;;
49392;SDS011;35268;42.642;23.308;2022-11-03T03:53:50;11.43;;;4.95;;
49392;SDS011;35268;42.642;23.308;2022-11-03T03:56:19;22.30;;;4.57;;
49392;SDS011;35268;42.642;23.308;2022-11-03T03:58:47;19.10;;;5.47;;
49392;SDS011;35268;42.642;23.308;2022-11-03T04:01:13;13.27;;;4.22;;
49392;SDS011;35268;42.642;23.308;2022-11-03T04:03:38;18.40;;;5.18;;
49392;SDS011;35268;42.642;23.308;2022-11-03T04:06:04;10.38;;;4.80;;
49392;SDS011;35268;42.642;23.308;2022-11-03T04:08:29;15.75;;;4.90;;
49392;SDS011;35268;42.642;23.308;2022-11-03T04:10:55;12.98;;;5.45;;
49392;SDS011;35268;42.642;23.308;2022-11-03T04:13:39;13.80;;;5.40;;
49392;SDS011;35268;42.642;23.308;2022-11-03T04:16:23;12.32;;;5.80;;
49392;SDS011;35268;42.642;23.308;2022-11-03T04:19:09;16.60;;;5.93;;
49392;SDS011;35268;42.642;23.308;2022-11-03T04:21:53;21.40;;;6.45;;
49392;SDS011;35268;42.642;23.308;2022-11-03T04:24:37;15.35;;;5.97;;
49392;SDS011;35268;42.642;23.308;2022-11-03T04:27:15;19.13;;;6.55;;
49392;SDS011;35268;42.642;23.308;2022-11-03T04:30:13;18.80;;;6.57;;
49392;SDS011;35268;42.642;23.308;2022-11-03T04:32:41;19.60;;;5.72;;
49392;SDS011;35268;42.642;23.308;2022-11-03T04:35:19;24.05;;;6.28;;
49392;SDS011;35268;42.642;23.308;2022-11-03T04:37:55;14.05;;;6.40;;
49392;SDS011;35268;42.642;23.308;2022-11-03T04:40:24;16.58;;;5.55;;
49392;SDS011;35268;42.642;23.308;2022-11-03T04:42:51;18.00;;;5.97;;
49392;SDS011;35268;42.642;23.308;2022-11-03T04:47:55;17.35;;;6.78;;
49392;SDS011;35268;42.642;23.308;2022-11-03T04:50:23;19.98;;;7.03;;
49392;SDS011;35268;42.642;23.308;2022-11-03T04:52:56;25.33;;;7.25;;
49392;SDS011;35268;42.642;23.308;2022-11-03T04:55:22;17.85;;;7.05;;
49392;SDS011;35268;42.642;23.308;2022-11-03T04:57:49;19.95;;;6.45;;
49392;SDS011;35268;42.642;23.308;2022-11-03T05:00:21;12.15;;;5.63;;
49392;SDS011;35268;42.642;23.308;2022-11-03T05:02:48;28.30;;;6.38;;
49392;SDS011;35268;42.642;23.308;2022-11-03T05:05:24;22.60;;;7.85;;
49392;SDS011;35268;42.642;23.308;2022-11-03T05:07:51;17.65;;;6.22;;
49392;SDS011;35268;42.642;23.308;2022-11-03T05:10:23;19.10;;;6.78;;
49392;SDS011;35268;42.642;23.308;2022-11-03T05:12:50;19.85;;;5.88;;
49392;SDS011;35268;42.642;23.308;2022-11-03T05:15:28;17.05;;;6.22;;
49392;SDS011;35268;42.642;23.308;2022-11-03T05:18:03;16.67;;;6.05;;
49392;SDS011;35268;42.642;23.308;2022-11-03T05:20:44;21.45;;;6.82;;
49392;SDS011;35268;42.642;23.308;2022-11-03T05:23:13;16.17;;;7.32;;
49392;SDS011;35268;42.642;23.308;2022-11-03T05:25:39;19.23;;;6.93;;
49392;SDS011;35268;42.642;23.308;2022-11-03T05:28:09;20.38;;;7.70;;
49392;SDS011;35268;42.642;23.308;2022-11-03T05:30:46;16.60;;;7.03;;
49392;SDS011;35268;42.642;23.308;2022-11-03T05:33:20;19.65;;;6.28;;
49392;SDS011;35268;42.642;23.308;2022-11-03T05:35:54;26.67;;;7.47;;
49392;SDS011;35268;42.642;23.308;2022-11-03T05:38:20;18.65;;;6.47;;
49392;SDS011;35268;42.642;23.308;2022-11-03T05:40:51;20.80;;;5.68;;
49392;SDS011;35268;42.642;23.308;2022-11-03T05:43:18;23.63;;;6.90;;
49392;SDS011;35268;42.642;23.308;2022-11-03T05:45:44;20.63;;;6.32;;
49392;SDS011;35268;42.642;23.308;2022-11-03T05:48:20;16.95;;;6.32;;
49392;SDS011;35268;42.642;23.308;2022-11-03T05:50:54;23.88;;;7.10;;
49392;SDS011;35268;42.642;23.308;2022-11-03T05:53:28;21.80;;;6.82;;
49392;SDS011;35268;42.642;23.308;2022-11-03T05:55:57;23.92;;;6.38;;
49392;SDS011;35268;42.642;23.308;2022-11-03T06:00:56;23.47;;;7.63;;
49392;SDS011;35268;42.642;23.308;2022-11-03T06:03:24;22.70;;;8.52;;
49392;SDS011;35268;42.642;23.308;2022-11-03T06:05:52;19.60;;;7.15;;
49392;SDS011;35268;42.642;23.308;2022-11-03T06:08:20;28.02;;;8.98;;
49392;SDS011;35268;42.642;23.308;2022-11-03T06:10:53;24.67;;;9.10;;
49392;SDS011;35268;42.642;23.308;2022-11-03T06:13:25;20.60;;;8.33;;
49392;SDS011;35268;42.642;23.308;2022-11-03T06:15:56;25.40;;;8.45;;
49392;SDS011;35268;42.642;23.308;2022-11-03T06:18:25;22.13;;;8.15;;
49392;SDS011;35268;42.642;23.308;2022-11-03T06:21:02;18.08;;;9.20;;
49392;SDS011;35268;42.642;23.308;2022-11-03T06:23:31;28.63;;;8.77;;
49392;SDS011;35268;42.642;23.308;2022-11-03T06:25:58;24.23;;;10.43;;
49392;SDS011;35268;42.642;23.308;2022-11-03T06:28:39;18.45;;;9.85;;
49392;SDS011;35268;42.642;23.308;2022-11-03T06:31:26;24.17;;;10.00;;
49392;SDS011;35268;42.642;23.308;2022-11-03T06:33:51;29.27;;;10.80;;
49392;SDS011;35268;42.642;23.308;2022-11-03T06:36:18;39.22;;;14.15;;
49392;SDS011;35268;42.642;23.308;2022-11-03T06:38:48;47.95;;;15.88;;
49392;SDS011;35268;42.642;23.308;2022-11-03T06:41:21;34.15;;;13.00;;
49392;SDS011;35268;42.642;23.308;2022-11-03T06:43:49;30.30;;;10.25;;
49392;SDS011;35268;42.642;23.308;2022-11-03T06:46:24;22.27;;;8.45;;
49392;SDS011;35268;42.642;23.308;2022-11-03T06:48:54;23.42;;;9.73;;
49392;SDS011;35268;42.642;23.308;2022-11-03T06:51:24;31.17;;;9.88;;
49392;SDS011;35268;42.642;23.308;2022-11-03T06:53:52;41.78;;;12.18;;
49392;SDS011;35268;42.642;23.308;2022-11-03T06:56:20;32.00;;;10.98;;
49392;SDS011;35268;42.642;23.308;2022-11-03T06:58:47;21.42;;;10.13;;
49392;SDS011;35268;42.642;23.308;2022-11-03T07:01:17;27.50;;;10.35;;
49392;SDS011;35268;42.642;23.308;2022-11-03T07:03:45;17.10;;;8.90;;
49392;SDS011;35268;42.642;23.308;2022-11-03T07:08:38;28.33;;;11.35;;
49392;SDS011;35268;42.642;23.308;2022-11-03T07:11:26;28.40;;;10.70;;
49392;SDS011;35268;42.642;23.308;2022-11-03T07:13:57;28.48;;;9.63;;
49392;SDS011;35268;42.642;23.308;2022-11-03T07:16:28;46.30;;;13.30;;
49392;SDS011;35268;42.642;23.308;2022-11-03T07:19:00;40.03;;;12.10;;
49392;SDS011;35268;42.642;23.308;2022-11-03T07:24:21;32.72;;;10.65;;
49392;SDS011;35268;42.642;23.308;2022-11-03T07:27:41;24.05;;;10.25;;
49392;SDS011;35268;42.642;23.308;2022-11-03T07:29:51;27.15;;;10.70;;
49392;SDS011;35268;42.642;23.308;2022-11-03T07:32:23;25.13;;;10.13;;
49392;SDS011;35268;42.642;23.308;2022-11-03T07:34:52;31.25;;;10.35;;
49392;SDS011;35268;42.642;23.308;2022-11-03T07:37:28;34.00;;;11.18;;
49392;SDS011;35268;42.642;23.308;2022-11-03T07:39:53;32.17;;;12.32;;
49392;SDS011;35268;42.642;23.308;2022-11-03T07:42:20;24.60;;;11.77;;
49392;SDS011;35268;42.642;23.308;2022-11-03T07:44:47;26.55;;;10.93;;
49392;SDS011;35268;42.642;23.308;2022-11-03T07:47:17;45.65;;;12.75;;
49392;SDS011;35268;42.642;23.308;2022-11-03T07:49:44;29.17;;;11.30;;
49392;SDS011;35268;42.642;23.308;2022-11-03T07:52:13;35.45;;;10.88;;
49392;SDS011;35268;42.642;23.308;2022-11-03T07:54:43;29.92;;;11.23;;
49392;SDS011;35268;42.642;23.308;2022-11-03T07:57:22;33.30;;;10.40;;
49392;SDS011;35268;42.642;23.308;2022-11-03T08:00:03;33.33;;;11.30;;
49392;SDS011;35268;42.642;23.308;2022-11-03T08:02:33;33.95;;;11.27;;
49392;SDS011;35268;42.642;23.308;2022-11-03T08:05:01;31.65;;;10.75;;
49392;SDS011;35268;42.642;23.308;2022-11-03T08:07:28;22.10;;;10.88;;
49392;SDS011;35268;42.642;23.308;2022-11-03T08:09:55;30.25;;;10.38;;
49392;SDS011;35268;42.642;23.308;2022-11-03T08:12:21;32.80;;;10.40;;
49392;SDS011;35268;42.642;23.308;2022-11-03T08:14:47;30.58;;;10.50;;
49392;SDS011;35268;42.642;23.308;2022-11-03T08:17:12;19.95;;;9.85;;
49392;SDS011;35268;42.642;23.308;2022-11-03T08:19:38;24.85;;;9.38;;
49392;SDS011;35268;42.642;23.308;2022-11-03T08:22:04;29.17;;;11.45;;
49392;SDS011;35268;42.642;23.308;2022-11-03T08:24:30;24.73;;;10.85;;
49392;SDS011;35268;42.642;23.308;2022-11-03T08:26:55;25.00;;;11.07;;
49392;SDS011;35268;42.642;23.308;2022-11-03T08:29:21;22.77;;;10.20;;
49392;SDS011;35268;42.642;23.308;2022-11-03T08:31:48;29.17;;;10.50;;
49392;SDS011;35268;42.642;23.308;2022-11-03T08:34:14;17.73;;;8.75;;
49392;SDS011;35268;42.642;23.308;2022-11-03T08:36:39;18.38;;;8.88;;
49392;SDS011;35268;42.642;23.308;2022-11-03T08:39:05;28.67;;;11.48;;
49392;SDS011;35268;42.642;23.308;2022-11-03T08:41:30;33.03;;;11.00;;
49392;SDS011;35268;42.642;23.308;2022-11-03T08:43:56;30.33;;;11.35;;
49392;SDS011;35268;42.642;23.308;2022-11-03T08:46:21;30.23;;;10.57;;
49392;SDS011;35268;42.642;23.308;2022-11-03T08:48:47;25.25;;;10.98;;
49392;SDS011;35268;42.642;23.308;2022-11-03T08:51:13;29.63;;;11.18;;
49392;SDS011;35268;42.642;23.308;2022-11-03T08:53:39;27.67;;;10.70;;
49392;SDS011;35268;42.642;23.308;2022-11-03T08:56:06;24.17;;;11.70;;
49392;SDS011;35268;42.642;23.308;2022-11-03T08:58:32;26.88;;;12.10;;
49392;SDS011;35268;42.642;23.308;2022-11-03T09:00:57;22.83;;;11.73;;
49392;SDS011;35268;42.642;23.308;2022-11-03T09:03:23;24.20;;;10.98;;
49392;SDS011;35268;42.642;23.308;2022-11-03T09:05:48;26.30;;;11.27;;
49392;SDS011;35268;42.642;23.308;2022-11-03T09:08:14;27.33;;;11.60;;
49392;SDS011;35268;42.642;23.308;2022-11-03T09:10:39;41.92;;;12.57;;
49392;SDS011;35268;42.642;23.308;2022-11-03T09:13:05;27.58;;;12.02;;
49392;SDS011;35268;42.642;23.308;2022-11-03T09:15:30;34.08;;;11.85;;
49392;SDS011;35268;42.642;23.308;2022-11-03T09:17:56;45.65;;;12.63;;
49392;SDS011;35268;42.642;23.308;2022-11-03T09:20:21;25.63;;;12.27;;
49392;SDS011;35268;42.642;23.308;2022-11-03T09:22:47;34.42;;;12.95;;
49392;SDS011;35268;42.642;23.308;2022-11-03T09:25:12;28.77;;;11.95;;
49392;SDS011;35268;42.642;23.308;2022-11-03T09:27:38;26.13;;;10.80;;
49392;SDS011;35268;42.642;23.308;2022-11-03T09:30:03;28.67;;;12.13;;
49392;SDS011;35268;42.642;23.308;2022-11-03T09:32:29;26.00;;;11.90;;
49392;SDS011;35268;42.642;23.308;2022-11-03T09:34:55;30.15;;;11.88;;
49392;SDS011;35268;42.642;23.308;2022-11-03T09:37:20;25.67;;;11.45;;
49392;SDS011;35268;42.642;23.308;2022-11-03T09:39:47;22.20;;;10.32;;
49392;SDS011;35268;42.642;23.308;2022-11-03T09:42:13;23.88;;;11.60;;
49392;SDS011;35268;42.642;23.308;2022-11-03T09:44:40;31.75;;;12.35;;
49392;SDS011;35268;42.642;23.308;2022-11-03T09:47:06;33.92;;;10.70;;
49392;SDS011;35268;42.642;23.308;2022-11-03T09:49:39;29.08;;;11.43;;
49392;SDS011;35268;42.642;23.308;2022-11-03T09:52:05;26.95;;;10.88;;
49392;SDS011;35268;42.642;23.308;2022-11-03T09:54:31;21.70;;;11.32;;
49392;SDS011;35268;42.642;23.308;2022-11-03T09:56:57;23.33;;;11.25;;
49392;SDS011;35268;42.642;23.308;2022-11-03T09:59:33;40.45;;;10.75;;
49392;SDS011;35268;42.642;23.308;2022-11-03T10:02:01;35.45;;;10.65;;
49392;SDS011;35268;42.642;23.308;2022-11-03T10:04:26;39.90;;;11.30;;
49392;SDS011;35268;42.642;23.308;2022-11-03T10:06:56;29.40;;;10.77;;
49392;SDS011;35268;42.642;23.308;2022-11-03T10:09:23;38.47;;;10.50;;
49392;SDS011;35268;42.642;23.308;2022-11-03T10:11:50;21.98;;;10.02;;
49392;SDS011;35268;42.642;23.308;2022-11-03T10:14:18;25.38;;;9.43;;
49392;SDS011;35268;42.642;23.308;2022-11-03T10:16:46;27.05;;;10.02;;
49392;SDS011;35268;42.642;23.308;2022-11-03T10:19:17;35.10;;;10.27;;
49392;SDS011;35268;42.642;23.308;2022-11-03T10:21:42;25.30;;;8.80;;
49392;SDS011;35268;42.642;23.308;2022-11-03T10:24:11;36.10;;;11.20;;
49392;SDS011;35268;42.642;23.308;2022-11-03T10:26:41;31.50;;;9.73;;
49392;SDS011;35268;42.642;23.308;2022-11-03T10:31:47;22.55;;;7.85;;
49392;SDS011;35268;42.642;23.308;2022-11-03T10:37:43;19.05;;;8.20;;
49392;SDS011;35268;42.642;23.308;2022-11-03T10:39:54;20.88;;;6.65;;
49392;SDS011;35268;42.642;23.308;2022-11-03T10:42:25;21.52;;;6.93;;
49392;SDS011;35268;42.642;23.308;2022-11-03T10:45:14;19.83;;;7.47;;
49392;SDS011;35268;42.642;23.308;2022-11-03T10:47:41;26.42;;;6.90;;
49392;SDS011;35268;42.642;23.308;2022-11-03T10:50:17;13.95;;;6.25;;
49392;SDS011;35268;42.642;23.308;2022-11-03T10:52:43;19.35;;;5.43;;
49392;SDS011;35268;42.642;23.308;2022-11-03T10:55:09;19.33;;;5.75;;
49392;SDS011;35268;42.642;23.308;2022-11-03T10:57:35;10.55;;;3.05;;
49392;SDS011;35268;42.642;23.308;2022-11-03T11:00:01;10.02;;;4.07;;
49392;SDS011;35268;42.642;23.308;2022-11-03T11:02:28;12.52;;;4.15;;
49392;SDS011;35268;42.642;23.308;2022-11-03T11:05:07;13.20;;;3.97;;
49392;SDS011;35268;42.642;23.308;2022-11-03T11:07:38;13.25;;;2.97;;
49392;SDS011;35268;42.642;23.308;2022-11-03T11:10:27;10.82;;;4.60;;
49392;SDS011;35268;42.642;23.308;2022-11-03T11:15:54;21.10;;;6.78;;
49392;SDS011;35268;42.642;23.308;2022-11-03T11:31:27;14.93;;;5.35;;
49392;SDS011;35268;42.642;23.308;2022-11-03T11:36:42;17.00;;;4.75;;
49392;SDS011;35268;42.642;23.308;2022-11-03T11:45:11;18.45;;;4.20;;
49392;SDS011;35268;42.642;23.308;2022-11-03T11:47:34;16.25;;;4.50;;
49392;SDS011;35268;42.642;23.308;2022-11-03T11:52:50;11.13;;;3.55;;
49392;SDS011;35268;42.642;23.308;2022-11-03T11:58:49;16.17;;;3.55;;
49392;SDS011;35268;42.642;23.308;2022-11-03T12:01:02;13.75;;;3.85;;
49392;SDS011;35268;42.642;23.308;2022-11-03T12:03:31;18.15;;;3.47;;
49392;SDS011;35268;42.642;23.308;2022-11-03T12:05:56;14.82;;;3.72;;
49392;SDS011;35268;42.642;23.308;2022-11-03T12:08:26;19.40;;;3.78;;
49392;SDS011;35268;42.642;23.308;2022-11-03T12:10:54;22.60;;;4.22;;
49392;SDS011;35268;42.642;23.308;2022-11-03T12:13:34;15.38;;;3.85;;
49392;SDS011;35268;42.642;23.308;2022-11-03T12:16:03;14.80;;;3.80;;
49392;SDS011;35268;42.642;23.308;2022-11-03T12:21:02;19.42;;;4.28;;
49392;SDS011;35268;42.642;23.308;2022-11-03T12:23:33;18.58;;;4.45;;
49392;SDS011;35268;42.642;23.308;2022-11-03T12:26:13;17.35;;;4.80;;
49392;SDS011;35268;42.642;23.308;2022-11-03T12:28:39;13.65;;;3.42;;
49392;SDS011;35268;42.642;23.308;2022-11-03T12:31:04;12.00;;;3.38;;
49392;SDS011;35268;42.642;23.308;2022-11-03T12:33:30;19.45;;;2.97;;
49392;SDS011;35268;42.642;23.308;2022-11-03T12:35:55;13.15;;;2.95;;
49392;SDS011;35268;42.642;23.308;2022-11-03T12:38:21;14.93;;;3.22;;
49392;SDS011;35268;42.642;23.308;2022-11-03T12:40:48;25.52;;;5.28;;
49392;SDS011;35268;42.642;23.308;2022-11-03T12:43:14;18.38;;;4.07;;
49392;SDS011;35268;42.642;23.308;2022-11-03T12:45:39;19.77;;;4.65;;
49392;SDS011;35268;42.642;23.308;2022-11-03T12:48:05;23.02;;;4.28;;
49392;SDS011;35268;42.642;23.308;2022-11-03T12:50:32;17.08;;;4.43;;
49392;SDS011;35268;42.642;23.308;2022-11-03T12:52:58;13.68;;;4.72;;
49392;SDS011;35268;42.642;23.308;2022-11-03T12:55:23;17.58;;;5.28;;
49392;SDS011;35268;42.642;23.308;2022-11-03T12:57:49;19.00;;;5.95;;
49392;SDS011;35268;42.642;23.308;2022-11-03T13:00:15;12.85;;;4.03;;
49392;SDS011;35268;42.642;23.308;2022-11-03T13:02:41;19.75;;;4.47;;
49392;SDS011;35268;42.642;23.308;2022-11-03T13:05:06;21.13;;;4.47;;
49392;SDS011;35268;42.642;23.308;2022-11-03T13:07:32;20.40;;;5.40;;
49392;SDS011;35268;42.642;23.308;2022-11-03T13:09:58;21.95;;;5.20;;
49392;SDS011;35268;42.642;23.308;2022-11-03T13:12:23;18.27;;;4.80;;
49392;SDS011;35268;42.642;23.308;2022-11-03T13:14:56;18.05;;;4.43;;
49392;SDS011;35268;42.642;23.308;2022-11-03T13:17:25;18.48;;;3.95;;
49392;SDS011;35268;42.642;23.308;2022-11-03T13:19:51;10.65;;;4.60;;
49392;SDS011;35268;42.642;23.308;2022-11-03T13:22:21;11.85;;;4.07;;
49392;SDS011;35268;42.642;23.308;2022-11-03T13:24:47;11.77;;;3.83;;
49392;SDS011;35268;42.642;23.308;2022-11-03T13:27:13;17.75;;;4.38;;
49392;SDS011;35268;42.642;23.308;2022-11-03T13:29:38;17.13;;;4.45;;
49392;SDS011;35268;42.642;23.308;2022-11-03T13:32:04;14.38;;;4.35;;
49392;SDS011;35268;42.642;23.308;2022-11-03T13:34:29;21.50;;;4.20;;
49392;SDS011;35268;42.642;23.308;2022-11-03T13:36:55;16.58;;;4.65;;
49392;SDS011;35268;42.642;23.308;2022-11-03T13:39:21;20.60;;;4.78;;
49392;SDS011;35268;42.642;23.308;2022-11-03T13:41:47;17.63;;;5.35;;
49392;SDS011;35268;42.642;23.308;2022-11-03T13:44:12;23.40;;;6.53;;
49392;SDS011;35268;42.642;23.308;2022-11-03T13:46:38;12.45;;;4.32;;
49392;SDS011;35268;42.642;23.308;2022-11-03T13:49:03;18.75;;;4.95;;
49392;SDS011;35268;42.642;23.308;2022-11-03T13:51:29;14.30;;;4.35;;
49392;SDS011;35268;42.642;23.308;2022-11-03T13:53:55;17.73;;;4.50;;
49392;SDS011;35268;42.642;23.308;2022-11-03T13:56:20;26.60;;;4.95;;
49392;SDS011;35268;42.642;23.308;2022-11-03T13:58:46;29.20;;;5.15;;
49392;SDS011;35268;42.642;23.308;2022-11-03T14:01:12;17.80;;;4.85;;
49392;SDS011;35268;42.642;23.308;2022-11-03T14:03:38;18.67;;;5.45;;
49392;SDS011;35268;42.642;23.308;2022-11-03T14:06:04;14.35;;;4.15;;
49392;SDS011;35268;42.642;23.308;2022-11-03T14:08:29;15.68;;;4.90;;
49392;SDS011;35268;42.642;23.308;2022-11-03T14:10:55;16.50;;;7.22;;
49392;SDS011;35268;42.642;23.308;2022-11-03T14:13:21;16.42;;;4.72;;
49392;SDS011;35268;42.642;23.308;2022-11-03T14:15:46;19.92;;;5.28;;
49392;SDS011;35268;42.642;23.308;2022-11-03T14:18:12;32.38;;;5.35;;
49392;SDS011;35268;42.642;23.308;2022-11-03T14:20:37;16.13;;;4.72;;
49392;SDS011;35268;42.642;23.308;2022-11-03T14:23:03;20.00;;;5.57;;
49392;SDS011;35268;42.642;23.308;2022-11-03T14:25:28;22.13;;;5.35;;
49392;SDS011;35268;42.642;23.308;2022-11-03T14:27:54;15.65;;;5.88;;
49392;SDS011;35268;42.642;23.308;2022-11-03T14:30:19;21.70;;;5.18;;
49392;SDS011;35268;42.642;23.308;2022-11-03T14:32:45;12.15;;;5.47;;
49392;SDS011;35268;42.642;23.308;2022-11-03T14:35:10;19.70;;;4.68;;
49392;SDS011;35268;42.642;23.308;2022-11-03T14:37:36;17.80;;;4.70;;
49392;SDS011;35268;42.642;23.308;2022-11-03T14:40:02;13.15;;;4.93;;
49392;SDS011;35268;42.642;23.308;2022-11-03T14:42:29;21.13;;;4.70;;
49392;SDS011;35268;42.642;23.308;2022-11-03T14:44:54;27.35;;;5.38;;
49392;SDS011;35268;42.642;23.308;2022-11-03T14:47:21;16.08;;;5.28;;
49392;SDS011;35268;42.642;23.308;2022-11-03T14:49:47;11.10;;;4.43;;
49392;SDS011;35268;42.642;23.308;2022-11-03T14:52:13;19.55;;;4.78;;
49392;SDS011;35268;42.642;23.308;2022-11-03T14:54:41;16.27;;;5.40;;
49392;SDS011;35268;42.642;23.308;2022-11-03T14:57:08;23.38;;;5.85;;
49392;SDS011;35268;42.642;23.308;2022-11-03T14:59:33;22.92;;;5.53;;
49392;SDS011;35268;42.642;23.308;2022-11-03T15:01:59;19.83;;;5.97;;
49392;SDS011;35268;42.642;23.308;2022-11-03T15:04:25;25.15;;;5.85;;
49392;SDS011;35268;42.642;23.308;2022-11-03T15:06:51;20.48;;;5.22;;
49392;SDS011;35268;42.642;23.308;2022-11-03T15:09:16;23.40;;;6.00;;
49392;SDS011;35268;42.642;23.308;2022-11-03T15:11:42;30.52;;;6.28;;
49392;SDS011;35268;42.642;23.308;2022-11-03T15:14:08;18.25;;;5.50;;
49392;SDS011;35268;42.642;23.308;2022-11-03T15:16:34;19.30;;;6.15;;
49392;SDS011;35268;42.642;23.308;2022-11-03T15:19:03;23.58;;;6.85;;
49392;SDS011;35268;42.642;23.308;2022-11-03T15:21:29;27.92;;;7.95;;
49392;SDS011;35268;42.642;23.308;2022-11-03T15:23:56;30.40;;;8.25;;
49392;SDS011;35268;42.642;23.308;2022-11-03T15:26:21;28.35;;;8.20;;
49392;SDS011;35268;42.642;23.308;2022-11-03T15:28:47;37.00;;;8.68;;
49392;SDS011;35268;42.642;23.308;2022-11-03T15:31:13;28.85;;;10.57;;